sensor_id;sensor_type;location;lat;lon;timestamp;P1;durP1;ratioP1;P2;durP2;ratioP2
50319;SDS011;36226;53.464;9.852;2022-09-24T00:01:24;5.18;;;3.20;;
50319;SDS011;36226;53.464;9.852;2022-09-24T00:03:54;5.13;;;2.78;;
50319;SDS011;36226;53.464;9.852;2022-09-24T00:06:21;7.18;;;3.10;;
50319;SDS011;36226;53.464;9.852;2022-09-24T00:08:48;4.25;;;3.33;;
50319;SDS011;36226;53.464;9.852;2022-09-24T00:11:14;7.30;;;3.10;;
50319;SDS011;36226;53.464;9.852;2022-09-24T00:13:41;4.10;;;3.22;;
50319;SDS011;36226;53.464;9.852;2022-09-24T00:16:08;4.30;;;3.40;;
50319;SDS011;36226;53.464;9.852;2022-09-24T00:18:35;6.60;;;4.55;;
50319;SDS011;36226;53.464;9.852;2022-09-24T00:21:09;5.65;;;4.15;;
50319;SDS011;36226;53.464;9.852;2022-09-24T00:23:36;5.43;;;3.47;;
50319;SDS011;36226;53.464;9.852;2022-09-24T00:26:02;5.60;;;4.10;;
50319;SDS011;36226;53.464;9.852;2022-09-24T00:28:53;7.50;;;4.68;;
50319;SDS011;36226;53.464;9.852;2022-09-24T00:31:18;6.03;;;4.68;;
50319;SDS011;36226;53.464;9.852;2022-09-24T00:33:44;6.28;;;4.25;;
50319;SDS011;36226;53.464;9.852;2022-09-24T00:36:09;8.10;;;4.43;;
50319;SDS011;36226;53.464;9.852;2022-09-24T00:38:35;7.32;;;5.45;;
50319;SDS011;36226;53.464;9.852;2022-09-24T00:41:00;5.88;;;4.20;;
50319;SDS011;36226;53.464;9.852;2022-09-24T00:43:30;6.32;;;4.45;;
50319;SDS011;36226;53.464;9.852;2022-09-24T00:46:07;8.48;;;5.15;;
50319;SDS011;36226;53.464;9.852;2022-09-24T00:48:40;7.82;;;5.18;;
50319;SDS011;36226;53.464;9.852;2022-09-24T00:51:06;10.05;;;5.28;;
50319;SDS011;36226;53.464;9.852;2022-09-24T00:53:32;12.52;;;5.55;;
50319;SDS011;36226;53.464;9.852;2022-09-24T00:55:58;7.22;;;5.57;;
50319;SDS011;36226;53.464;9.852;2022-09-24T00:58:25;8.70;;;5.50;;
50319;SDS011;36226;53.464;9.852;2022-09-24T01:00:54;8.25;;;5.72;;
50319;SDS011;36226;53.464;9.852;2022-09-24T01:03:22;9.52;;;5.95;;
50319;SDS011;36226;53.464;9.852;2022-09-24T01:05:48;8.13;;;5.68;;
50319;SDS011;36226;53.464;9.852;2022-09-24T01:08:14;7.88;;;5.28;;
50319;SDS011;36226;53.464;9.852;2022-09-24T01:10:49;7.53;;;6.18;;
50319;SDS011;36226;53.464;9.852;2022-09-24T01:15:59;10.18;;;7.38;;
50319;SDS011;36226;53.464;9.852;2022-09-24T01:29:02;8.85;;;6.57;;
50319;SDS011;36226;53.464;9.852;2022-09-24T01:31:52;9.00;;;6.38;;
50319;SDS011;36226;53.464;9.852;2022-09-24T01:34:26;7.40;;;5.85;;
50319;SDS011;36226;53.464;9.852;2022-09-24T01:36:54;7.85;;;5.72;;
50319;SDS011;36226;53.464;9.852;2022-09-24T01:39:21;8.23;;;6.47;;
50319;SDS011;36226;53.464;9.852;2022-09-24T01:41:47;8.43;;;6.07;;
50319;SDS011;36226;53.464;9.852;2022-09-24T01:44:13;7.90;;;5.85;;
50319;SDS011;36226;53.464;9.852;2022-09-24T01:46:42;7.85;;;5.43;;
50319;SDS011;36226;53.464;9.852;2022-09-24T01:49:07;8.30;;;6.10;;
50319;SDS011;36226;53.464;9.852;2022-09-24T01:51:34;7.50;;;5.32;;
50319;SDS011;36226;53.464;9.852;2022-09-24T01:54:04;6.05;;;4.97;;
50319;SDS011;36226;53.464;9.852;2022-09-24T01:56:41;8.10;;;5.05;;
50319;SDS011;36226;53.464;9.852;2022-09-24T02:02:00;9.88;;;5.25;;
50319;SDS011;36226;53.464;9.852;2022-09-24T02:04:28;7.53;;;5.35;;
50319;SDS011;36226;53.464;9.852;2022-09-24T02:06:55;7.00;;;5.00;;
50319;SDS011;36226;53.464;9.852;2022-09-24T02:09:29;7.47;;;5.18;;
50319;SDS011;36226;53.464;9.852;2022-09-24T02:12:01;6.82;;;5.25;;
50319;SDS011;36226;53.464;9.852;2022-09-24T02:14:35;7.75;;;5.47;;
50319;SDS011;36226;53.464;9.852;2022-09-24T02:17:03;8.80;;;5.25;;
50319;SDS011;36226;53.464;9.852;2022-09-24T02:19:30;7.68;;;5.28;;
50319;SDS011;36226;53.464;9.852;2022-09-24T02:21:59;9.32;;;5.75;;
50319;SDS011;36226;53.464;9.852;2022-09-24T02:24:27;9.70;;;5.72;;
50319;SDS011;36226;53.464;9.852;2022-09-24T02:26:56;8.02;;;5.90;;
50319;SDS011;36226;53.464;9.852;2022-09-24T02:29:21;8.07;;;6.22;;
50319;SDS011;36226;53.464;9.852;2022-09-24T02:31:47;8.48;;;6.57;;
50319;SDS011;36226;53.464;9.852;2022-09-24T02:34:15;9.73;;;6.85;;
50319;SDS011;36226;53.464;9.852;2022-09-24T02:36:49;9.48;;;5.72;;
50319;SDS011;36226;53.464;9.852;2022-09-24T02:39:17;7.38;;;5.95;;
50319;SDS011;36226;53.464;9.852;2022-09-24T02:41:45;9.02;;;6.05;;
50319;SDS011;36226;53.464;9.852;2022-09-24T02:44:13;10.05;;;6.13;;
50319;SDS011;36226;53.464;9.852;2022-09-24T02:46:44;7.75;;;5.78;;
50319;SDS011;36226;53.464;9.852;2022-09-24T02:49:10;8.50;;;6.45;;
50319;SDS011;36226;53.464;9.852;2022-09-24T02:51:38;11.02;;;8.05;;
50319;SDS011;36226;53.464;9.852;2022-09-24T02:54:03;13.05;;;8.70;;
50319;SDS011;36226;53.464;9.852;2022-09-24T02:56:29;11.25;;;8.73;;
50319;SDS011;36226;53.464;9.852;2022-09-24T02:58:55;17.17;;;13.15;;
50319;SDS011;36226;53.464;9.852;2022-09-24T03:01:20;19.15;;;12.80;;
50319;SDS011;36226;53.464;9.852;2022-09-24T03:03:46;16.73;;;12.65;;
50319;SDS011;36226;53.464;9.852;2022-09-24T03:06:12;18.17;;;12.73;;
50319;SDS011;36226;53.464;9.852;2022-09-24T03:08:38;19.20;;;13.60;;
50319;SDS011;36226;53.464;9.852;2022-09-24T03:11:03;18.35;;;13.00;;
50319;SDS011;36226;53.464;9.852;2022-09-24T03:13:29;21.58;;;13.07;;
50319;SDS011;36226;53.464;9.852;2022-09-24T03:15:54;17.63;;;11.75;;
50319;SDS011;36226;53.464;9.852;2022-09-24T03:18:20;17.25;;;12.18;;
50319;SDS011;36226;53.464;9.852;2022-09-24T03:20:59;20.60;;;14.00;;
50319;SDS011;36226;53.464;9.852;2022-09-24T03:23:25;19.40;;;13.57;;
50319;SDS011;36226;53.464;9.852;2022-09-24T03:25:51;18.08;;;12.98;;
50319;SDS011;36226;53.464;9.852;2022-09-24T03:28:16;19.92;;;14.45;;
50319;SDS011;36226;53.464;9.852;2022-09-24T03:30:42;18.45;;;14.20;;
50319;SDS011;36226;53.464;9.852;2022-09-24T03:33:30;20.00;;;14.13;;
50319;SDS011;36226;53.464;9.852;2022-09-24T03:36:08;21.60;;;14.52;;
50319;SDS011;36226;53.464;9.852;2022-09-24T03:38:36;17.73;;;13.27;;
50319;SDS011;36226;53.464;9.852;2022-09-24T03:41:02;18.52;;;12.90;;
50319;SDS011;36226;53.464;9.852;2022-09-24T03:43:28;18.92;;;13.10;;
50319;SDS011;36226;53.464;9.852;2022-09-24T03:45:53;17.17;;;12.27;;
50319;SDS011;36226;53.464;9.852;2022-09-24T03:48:20;16.33;;;12.45;;
50319;SDS011;36226;53.464;9.852;2022-09-24T03:50:46;15.55;;;10.70;;
50319;SDS011;36226;53.464;9.852;2022-09-24T03:53:12;17.13;;;11.65;;
50319;SDS011;36226;53.464;9.852;2022-09-24T03:55:42;19.05;;;13.05;;
50319;SDS011;36226;53.464;9.852;2022-09-24T03:58:09;18.42;;;12.57;;
50319;SDS011;36226;53.464;9.852;2022-09-24T04:00:34;21.38;;;13.02;;
50319;SDS011;36226;53.464;9.852;2022-09-24T04:02:59;17.08;;;11.50;;
50319;SDS011;36226;53.464;9.852;2022-09-24T04:05:25;16.92;;;12.38;;
50319;SDS011;36226;53.464;9.852;2022-09-24T04:07:50;19.52;;;13.48;;
50319;SDS011;36226;53.464;9.852;2022-09-24T04:10:15;17.13;;;12.27;;
50319;SDS011;36226;53.464;9.852;2022-09-24T04:12:41;21.33;;;13.00;;
50319;SDS011;36226;53.464;9.852;2022-09-24T04:15:07;18.25;;;12.38;;
50319;SDS011;36226;53.464;9.852;2022-09-24T04:17:33;19.80;;;12.80;;
50319;SDS011;36226;53.464;9.852;2022-09-24T04:19:59;18.83;;;12.32;;
50319;SDS011;36226;53.464;9.852;2022-09-24T04:22:25;16.60;;;11.48;;
50319;SDS011;36226;53.464;9.852;2022-09-24T04:24:53;20.70;;;12.40;;
50319;SDS011;36226;53.464;9.852;2022-09-24T04:27:19;17.15;;;11.98;;
50319;SDS011;36226;53.464;9.852;2022-09-24T04:29:45;15.57;;;11.07;;
50319;SDS011;36226;53.464;9.852;2022-09-24T04:32:10;16.35;;;12.00;;
50319;SDS011;36226;53.464;9.852;2022-09-24T04:34:36;17.77;;;11.57;;
50319;SDS011;36226;53.464;9.852;2022-09-24T04:37:01;16.02;;;11.52;;
50319;SDS011;36226;53.464;9.852;2022-09-24T04:39:26;14.82;;;10.85;;
50319;SDS011;36226;53.464;9.852;2022-09-24T04:41:52;18.83;;;11.70;;
50319;SDS011;36226;53.464;9.852;2022-09-24T04:44:18;16.48;;;11.50;;
50319;SDS011;36226;53.464;9.852;2022-09-24T04:46:43;17.05;;;11.48;;
50319;SDS011;36226;53.464;9.852;2022-09-24T04:49:09;16.58;;;11.63;;
50319;SDS011;36226;53.464;9.852;2022-09-24T04:51:38;18.10;;;12.70;;
50319;SDS011;36226;53.464;9.852;2022-09-24T04:54:03;20.08;;;11.65;;
50319;SDS011;36226;53.464;9.852;2022-09-24T04:56:28;18.80;;;12.85;;
50319;SDS011;36226;53.464;9.852;2022-09-24T04:58:55;17.05;;;12.35;;
50319;SDS011;36226;53.464;9.852;2022-09-24T05:01:20;19.00;;;12.35;;
50319;SDS011;36226;53.464;9.852;2022-09-24T05:03:46;16.20;;;12.25;;
50319;SDS011;36226;53.464;9.852;2022-09-24T05:06:11;18.10;;;12.80;;
50319;SDS011;36226;53.464;9.852;2022-09-24T05:08:37;17.08;;;12.15;;
50319;SDS011;36226;53.464;9.852;2022-09-24T05:11:02;16.77;;;11.32;;
50319;SDS011;36226;53.464;9.852;2022-09-24T05:13:28;20.00;;;13.40;;
50319;SDS011;36226;53.464;9.852;2022-09-24T05:15:53;15.32;;;11.02;;
50319;SDS011;36226;53.464;9.852;2022-09-24T05:18:19;18.88;;;11.35;;
50319;SDS011;36226;53.464;9.852;2022-09-24T05:20:44;17.73;;;11.63;;
50319;SDS011;36226;53.464;9.852;2022-09-24T05:23:10;17.00;;;12.00;;
50319;SDS011;36226;53.464;9.852;2022-09-24T05:25:36;18.77;;;11.98;;
50319;SDS011;36226;53.464;9.852;2022-09-24T05:28:21;13.63;;;10.75;;
50319;SDS011;36226;53.464;9.852;2022-09-24T05:30:47;18.73;;;11.70;;
50319;SDS011;36226;53.464;9.852;2022-09-24T05:33:12;17.85;;;11.50;;
50319;SDS011;36226;53.464;9.852;2022-09-24T05:35:38;17.02;;;10.23;;
50319;SDS011;36226;53.464;9.852;2022-09-24T05:38:03;15.70;;;10.05;;
50319;SDS011;36226;53.464;9.852;2022-09-24T05:40:28;15.48;;;9.82;;
50319;SDS011;36226;53.464;9.852;2022-09-24T05:43:12;12.30;;;9.27;;
50319;SDS011;36226;53.464;9.852;2022-09-24T05:45:38;13.95;;;9.77;;
50319;SDS011;36226;53.464;9.852;2022-09-24T05:48:03;14.05;;;8.75;;
50319;SDS011;36226;53.464;9.852;2022-09-24T05:50:29;15.00;;;9.20;;
50319;SDS011;36226;53.464;9.852;2022-09-24T05:52:56;13.60;;;8.82;;
50319;SDS011;36226;53.464;9.852;2022-09-24T05:55:22;11.90;;;8.82;;
50319;SDS011;36226;53.464;9.852;2022-09-24T05:57:48;13.90;;;8.82;;
50319;SDS011;36226;53.464;9.852;2022-09-24T06:00:13;15.57;;;9.25;;
50319;SDS011;36226;53.464;9.852;2022-09-24T06:02:38;13.30;;;8.60;;
50319;SDS011;36226;53.464;9.852;2022-09-24T06:05:04;13.43;;;9.63;;
50319;SDS011;36226;53.464;9.852;2022-09-24T06:07:29;13.35;;;9.90;;
50319;SDS011;36226;53.464;9.852;2022-09-24T06:09:55;15.25;;;10.32;;
50319;SDS011;36226;53.464;9.852;2022-09-24T06:12:23;16.40;;;10.40;;
50319;SDS011;36226;53.464;9.852;2022-09-24T06:14:48;17.00;;;11.25;;
50319;SDS011;36226;53.464;9.852;2022-09-24T06:17:13;17.38;;;12.25;;
50319;SDS011;36226;53.464;9.852;2022-09-24T06:19:39;20.17;;;11.80;;
50319;SDS011;36226;53.464;9.852;2022-09-24T06:22:04;18.15;;;12.30;;
50319;SDS011;36226;53.464;9.852;2022-09-24T06:24:30;19.42;;;12.30;;
50319;SDS011;36226;53.464;9.852;2022-09-24T06:26:55;20.13;;;12.43;;
50319;SDS011;36226;53.464;9.852;2022-09-24T06:29:22;20.85;;;12.73;;
50319;SDS011;36226;53.464;9.852;2022-09-24T06:31:47;18.75;;;11.75;;
50319;SDS011;36226;53.464;9.852;2022-09-24T06:34:12;21.38;;;13.05;;
50319;SDS011;36226;53.464;9.852;2022-09-24T06:36:39;17.58;;;12.05;;
50319;SDS011;36226;53.464;9.852;2022-09-24T06:39:04;18.17;;;12.27;;
50319;SDS011;36226;53.464;9.852;2022-09-24T06:41:29;19.83;;;13.43;;
50319;SDS011;36226;53.464;9.852;2022-09-24T06:43:55;23.92;;;13.50;;
50319;SDS011;36226;53.464;9.852;2022-09-24T06:46:20;20.55;;;13.25;;
50319;SDS011;36226;53.464;9.852;2022-09-24T06:48:47;22.27;;;14.85;;
50319;SDS011;36226;53.464;9.852;2022-09-24T06:51:13;21.35;;;14.13;;
50319;SDS011;36226;53.464;9.852;2022-09-24T06:53:38;20.38;;;13.30;;
50319;SDS011;36226;53.464;9.852;2022-09-24T06:56:03;23.83;;;15.02;;
50319;SDS011;36226;53.464;9.852;2022-09-24T06:58:29;22.55;;;15.05;;
50319;SDS011;36226;53.464;9.852;2022-09-24T07:00:55;24.15;;;14.70;;
50319;SDS011;36226;53.464;9.852;2022-09-24T07:03:22;21.95;;;14.05;;
50319;SDS011;36226;53.464;9.852;2022-09-24T07:05:48;22.45;;;13.68;;
50319;SDS011;36226;53.464;9.852;2022-09-24T07:08:13;21.70;;;14.07;;
50319;SDS011;36226;53.464;9.852;2022-09-24T07:10:42;21.95;;;14.20;;
50319;SDS011;36226;53.464;9.852;2022-09-24T07:13:09;22.17;;;14.27;;
50319;SDS011;36226;53.464;9.852;2022-09-24T07:15:35;21.13;;;14.23;;
50319;SDS011;36226;53.464;9.852;2022-09-24T07:18:01;24.20;;;14.40;;
50319;SDS011;36226;53.464;9.852;2022-09-24T07:20:26;21.05;;;13.45;;
50319;SDS011;36226;53.464;9.852;2022-09-24T07:22:52;22.42;;;13.95;;
50319;SDS011;36226;53.464;9.852;2022-09-24T07:25:17;21.88;;;14.57;;
50319;SDS011;36226;53.464;9.852;2022-09-24T07:27:43;21.58;;;14.57;;
50319;SDS011;36226;53.464;9.852;2022-09-24T07:30:08;22.50;;;14.13;;
50319;SDS011;36226;53.464;9.852;2022-09-24T07:32:34;20.85;;;13.85;;
50319;SDS011;36226;53.464;9.852;2022-09-24T07:35:00;18.88;;;13.05;;
50319;SDS011;36226;53.464;9.852;2022-09-24T07:37:25;23.25;;;15.48;;
50319;SDS011;36226;53.464;9.852;2022-09-24T07:39:51;25.92;;;15.65;;
50319;SDS011;36226;53.464;9.852;2022-09-24T07:42:16;21.48;;;14.35;;
50319;SDS011;36226;53.464;9.852;2022-09-24T07:44:42;22.67;;;14.27;;
50319;SDS011;36226;53.464;9.852;2022-09-24T07:47:07;20.30;;;13.90;;
50319;SDS011;36226;53.464;9.852;2022-09-24T07:49:32;23.00;;;15.10;;
50319;SDS011;36226;53.464;9.852;2022-09-24T07:51:58;25.30;;;15.13;;
50319;SDS011;36226;53.464;9.852;2022-09-24T07:54:23;23.50;;;14.60;;
50319;SDS011;36226;53.464;9.852;2022-09-24T07:56:49;24.23;;;15.13;;
50319;SDS011;36226;53.464;9.852;2022-09-24T07:59:14;24.27;;;15.05;;
50319;SDS011;36226;53.464;9.852;2022-09-24T08:01:39;25.77;;;15.82;;
50319;SDS011;36226;53.464;9.852;2022-09-24T08:04:05;25.55;;;15.98;;
50319;SDS011;36226;53.464;9.852;2022-09-24T08:06:32;24.25;;;15.93;;
50319;SDS011;36226;53.464;9.852;2022-09-24T08:08:58;24.23;;;15.25;;
50319;SDS011;36226;53.464;9.852;2022-09-24T08:11:24;23.15;;;15.35;;
50319;SDS011;36226;53.464;9.852;2022-09-24T08:13:49;24.10;;;15.98;;
50319;SDS011;36226;53.464;9.852;2022-09-24T08:16:15;23.30;;;15.35;;
50319;SDS011;36226;53.464;9.852;2022-09-24T08:18:41;31.83;;;17.08;;
50319;SDS011;36226;53.464;9.852;2022-09-24T08:21:08;22.80;;;15.98;;
50319;SDS011;36226;53.464;9.852;2022-09-24T08:23:35;23.30;;;14.95;;
50319;SDS011;36226;53.464;9.852;2022-09-24T08:26:02;25.35;;;15.93;;
50319;SDS011;36226;53.464;9.852;2022-09-24T08:28:27;25.00;;;16.20;;
50319;SDS011;36226;53.464;9.852;2022-09-24T08:30:57;26.15;;;15.75;;
50319;SDS011;36226;53.464;9.852;2022-09-24T08:33:26;27.30;;;16.52;;
50319;SDS011;36226;53.464;9.852;2022-09-24T08:35:54;22.92;;;15.90;;
50319;SDS011;36226;53.464;9.852;2022-09-24T08:38:19;30.27;;;17.63;;
50319;SDS011;36226;53.464;9.852;2022-09-24T08:40:51;25.98;;;17.60;;
50319;SDS011;36226;53.464;9.852;2022-09-24T08:43:38;26.02;;;16.45;;
50319;SDS011;36226;53.464;9.852;2022-09-24T08:46:14;23.88;;;16.75;;
50319;SDS011;36226;53.464;9.852;2022-09-24T08:49:01;28.00;;;18.02;;
50319;SDS011;36226;53.464;9.852;2022-09-24T08:51:29;27.80;;;17.30;;
50319;SDS011;36226;53.464;9.852;2022-09-24T08:54:10;29.80;;;18.40;;
50319;SDS011;36226;53.464;9.852;2022-09-24T08:56:37;28.70;;;18.80;;
50319;SDS011;36226;53.464;9.852;2022-09-24T08:59:20;26.63;;;17.67;;
50319;SDS011;36226;53.464;9.852;2022-09-24T09:04:47;27.70;;;17.75;;
50319;SDS011;36226;53.464;9.852;2022-09-24T09:07:22;28.10;;;18.10;;
50319;SDS011;36226;53.464;9.852;2022-09-24T09:09:55;21.85;;;14.63;;
50319;SDS011;36226;53.464;9.852;2022-09-24T09:15:12;23.70;;;17.63;;
50319;SDS011;36226;53.464;9.852;2022-09-24T09:20:22;24.10;;;15.75;;
50319;SDS011;36226;53.464;9.852;2022-09-24T09:22:51;25.02;;;16.42;;
50319;SDS011;36226;53.464;9.852;2022-09-24T09:25:24;25.75;;;17.20;;
50319;SDS011;36226;53.464;9.852;2022-09-24T09:28:03;20.88;;;15.63;;
50319;SDS011;36226;53.464;9.852;2022-09-24T09:42:00;26.67;;;17.35;;
50319;SDS011;36226;53.464;9.852;2022-09-24T09:44:36;23.80;;;16.58;;
50319;SDS011;36226;53.464;9.852;2022-09-24T09:49:54;31.08;;;18.90;;
50319;SDS011;36226;53.464;9.852;2022-09-24T10:05:01;28.17;;;18.92;;
50319;SDS011;36226;53.464;9.852;2022-09-24T10:07:27;32.88;;;21.20;;
50319;SDS011;36226;53.464;9.852;2022-09-24T10:10:10;27.02;;;19.85;;
50319;SDS011;36226;53.464;9.852;2022-09-24T10:12:41;32.05;;;19.88;;
50319;SDS011;36226;53.464;9.852;2022-09-24T10:17:38;28.83;;;19.60;;
50319;SDS011;36226;53.464;9.852;2022-09-24T10:22:38;30.30;;;19.52;;
50319;SDS011;36226;53.464;9.852;2022-09-24T10:25:15;30.35;;;19.77;;
50319;SDS011;36226;53.464;9.852;2022-09-24T10:27:42;33.83;;;19.60;;
50319;SDS011;36226;53.464;9.852;2022-09-24T10:30:11;32.15;;;20.88;;
50319;SDS011;36226;53.464;9.852;2022-09-24T10:32:57;35.17;;;21.70;;
50319;SDS011;36226;53.464;9.852;2022-09-24T10:35:30;34.00;;;21.25;;
50319;SDS011;36226;53.464;9.852;2022-09-24T10:38:00;33.08;;;22.48;;
50319;SDS011;36226;53.464;9.852;2022-09-24T10:40:28;33.55;;;21.00;;
50319;SDS011;36226;53.464;9.852;2022-09-24T10:43:01;33.10;;;21.65;;
50319;SDS011;36226;53.464;9.852;2022-09-24T10:51:21;31.83;;;21.45;;
50319;SDS011;36226;53.464;9.852;2022-09-24T10:59:01;31.73;;;21.40;;
50319;SDS011;36226;53.464;9.852;2022-09-24T11:01:54;35.35;;;22.23;;
50319;SDS011;36226;53.464;9.852;2022-09-24T11:15:56;35.20;;;23.02;;
50319;SDS011;36226;53.464;9.852;2022-09-24T11:27:06;36.55;;;22.60;;
50319;SDS011;36226;53.464;9.852;2022-09-24T11:34:58;41.40;;;27.42;;
50319;SDS011;36226;53.464;9.852;2022-09-24T11:37:57;34.83;;;21.98;;
50319;SDS011;36226;53.464;9.852;2022-09-24T11:40:37;36.15;;;22.60;;
50319;SDS011;36226;53.464;9.852;2022-09-24T11:43:33;38.15;;;23.77;;
50319;SDS011;36226;53.464;9.852;2022-09-24T11:51:30;34.38;;;23.08;;
50319;SDS011;36226;53.464;9.852;2022-09-24T11:54:03;32.88;;;22.83;;
50319;SDS011;36226;53.464;9.852;2022-09-24T11:56:34;33.78;;;22.45;;
50319;SDS011;36226;53.464;9.852;2022-09-24T12:01:50;37.17;;;23.65;;
50319;SDS011;36226;53.464;9.852;2022-09-24T12:04:20;40.25;;;27.42;;
50319;SDS011;36226;53.464;9.852;2022-09-24T12:06:55;34.97;;;22.85;;
50319;SDS011;36226;53.464;9.852;2022-09-24T12:12:12;35.45;;;23.65;;
50319;SDS011;36226;53.464;9.852;2022-09-24T12:17:06;34.97;;;22.50;;
50319;SDS011;36226;53.464;9.852;2022-09-24T12:22:20;35.00;;;22.08;;
50319;SDS011;36226;53.464;9.852;2022-09-24T12:24:53;38.30;;;21.80;;
50319;SDS011;36226;53.464;9.852;2022-09-24T12:33:09;33.53;;;22.48;;
50319;SDS011;36226;53.464;9.852;2022-09-24T12:38:40;33.72;;;21.77;;
50319;SDS011;36226;53.464;9.852;2022-09-24T12:46:25;32.58;;;21.40;;
50319;SDS011;36226;53.464;9.852;2022-09-24T12:48:53;32.40;;;21.13;;
50319;SDS011;36226;53.464;9.852;2022-09-24T12:51:19;31.17;;;21.25;;
50319;SDS011;36226;53.464;9.852;2022-09-24T12:53:57;28.55;;;19.20;;
50319;SDS011;36226;53.464;9.852;2022-09-24T12:56:27;29.10;;;20.02;;
50319;SDS011;36226;53.464;9.852;2022-09-24T12:58:53;28.70;;;19.27;;
50319;SDS011;36226;53.464;9.852;2022-09-24T13:06:39;33.47;;;22.02;;
50319;SDS011;36226;53.464;9.852;2022-09-24T13:14:38;25.60;;;18.38;;
50319;SDS011;36226;53.464;9.852;2022-09-24T13:17:05;26.50;;;17.85;;
50319;SDS011;36226;53.464;9.852;2022-09-24T13:19:38;24.88;;;17.58;;
50319;SDS011;36226;53.464;9.852;2022-09-24T13:22:22;23.27;;;15.50;;
50319;SDS011;36226;53.464;9.852;2022-09-24T13:24:52;23.25;;;16.80;;
50319;SDS011;36226;53.464;9.852;2022-09-24T13:35:44;27.20;;;18.85;;
50319;SDS011;36226;53.464;9.852;2022-09-24T13:38:15;27.80;;;19.13;;
50319;SDS011;36226;53.464;9.852;2022-09-24T13:40:43;25.75;;;17.60;;
50319;SDS011;36226;53.464;9.852;2022-09-24T13:43:24;21.83;;;17.67;;
50319;SDS011;36226;53.464;9.852;2022-09-24T13:46:02;24.55;;;17.67;;
50319;SDS011;36226;53.464;9.852;2022-09-24T13:48:34;22.15;;;16.17;;
50319;SDS011;36226;53.464;9.852;2022-09-24T13:51:02;20.52;;;15.68;;
50319;SDS011;36226;53.464;9.852;2022-09-24T13:53:36;22.48;;;15.00;;
50319;SDS011;36226;53.464;9.852;2022-09-24T13:56:16;22.73;;;15.38;;
50319;SDS011;36226;53.464;9.852;2022-09-24T13:58:42;22.42;;;15.82;;
50319;SDS011;36226;53.464;9.852;2022-09-24T14:01:15;21.73;;;16.05;;
50319;SDS011;36226;53.464;9.852;2022-09-24T14:03:56;20.00;;;14.55;;
50319;SDS011;36226;53.464;9.852;2022-09-24T14:06:34;24.15;;;15.20;;
50319;SDS011;36226;53.464;9.852;2022-09-24T14:09:01;22.58;;;15.25;;
50319;SDS011;36226;53.464;9.852;2022-09-24T14:11:27;19.95;;;14.80;;
50319;SDS011;36226;53.464;9.852;2022-09-24T14:13:52;25.05;;;17.27;;
50319;SDS011;36226;53.464;9.852;2022-09-24T14:16:20;22.73;;;15.98;;
50319;SDS011;36226;53.464;9.852;2022-09-24T14:18:46;20.67;;;15.38;;
50319;SDS011;36226;53.464;9.852;2022-09-24T14:24:03;23.50;;;16.75;;
50319;SDS011;36226;53.464;9.852;2022-09-24T14:29:03;33.47;;;23.27;;
50319;SDS011;36226;53.464;9.852;2022-09-24T14:31:40;20.58;;;16.90;;
50319;SDS011;36226;53.464;9.852;2022-09-24T14:34:07;22.17;;;16.50;;
50319;SDS011;36226;53.464;9.852;2022-09-24T14:36:33;24.42;;;17.20;;
50319;SDS011;36226;53.464;9.852;2022-09-24T14:39:00;24.65;;;16.95;;
50319;SDS011;36226;53.464;9.852;2022-09-24T14:41:28;25.02;;;18.38;;
50319;SDS011;36226;53.464;9.852;2022-09-24T14:46:26;22.08;;;17.15;;
50319;SDS011;36226;53.464;9.852;2022-09-24T14:49:03;24.15;;;17.35;;
50319;SDS011;36226;53.464;9.852;2022-09-24T14:51:30;22.80;;;16.70;;
50319;SDS011;36226;53.464;9.852;2022-09-24T14:54:04;24.23;;;18.17;;
50319;SDS011;36226;53.464;9.852;2022-09-24T14:56:44;30.55;;;22.00;;
50319;SDS011;36226;53.464;9.852;2022-09-24T14:59:13;26.73;;;20.08;;
50319;SDS011;36226;53.464;9.852;2022-09-24T15:01:43;23.15;;;16.98;;
50319;SDS011;36226;53.464;9.852;2022-09-24T15:04:22;24.60;;;18.50;;
50319;SDS011;36226;53.464;9.852;2022-09-24T15:06:50;25.23;;;17.92;;
50319;SDS011;36226;53.464;9.852;2022-09-24T15:09:28;25.80;;;18.58;;
50319;SDS011;36226;53.464;9.852;2022-09-24T15:11:54;21.98;;;16.48;;
50319;SDS011;36226;53.464;9.852;2022-09-24T15:14:22;27.52;;;19.77;;
50319;SDS011;36226;53.464;9.852;2022-09-24T15:16:51;26.45;;;18.83;;
50319;SDS011;36226;53.464;9.852;2022-09-24T15:19:27;27.02;;;18.80;;
50319;SDS011;36226;53.464;9.852;2022-09-24T15:21:56;29.63;;;20.92;;
50319;SDS011;36226;53.464;9.852;2022-09-24T15:24:22;30.58;;;22.33;;
50319;SDS011;36226;53.464;9.852;2022-09-24T15:29:48;28.83;;;19.70;;
50319;SDS011;36226;53.464;9.852;2022-09-24T15:32:15;27.15;;;19.08;;
50319;SDS011;36226;53.464;9.852;2022-09-24T15:34:44;30.77;;;21.35;;
50319;SDS011;36226;53.464;9.852;2022-09-24T15:37:10;33.17;;;22.13;;
50319;SDS011;36226;53.464;9.852;2022-09-24T15:39:36;26.30;;;19.67;;
50319;SDS011;36226;53.464;9.852;2022-09-24T15:42:02;25.35;;;19.95;;
50319;SDS011;36226;53.464;9.852;2022-09-24T15:44:27;29.17;;;20.80;;
50319;SDS011;36226;53.464;9.852;2022-09-24T15:46:53;27.77;;;19.73;;
50319;SDS011;36226;53.464;9.852;2022-09-24T15:49:19;26.98;;;18.67;;
50319;SDS011;36226;53.464;9.852;2022-09-24T15:51:46;22.73;;;17.35;;
50319;SDS011;36226;53.464;9.852;2022-09-24T15:54:13;25.23;;;16.30;;
50319;SDS011;36226;53.464;9.852;2022-09-24T15:56:39;22.75;;;15.48;;
50319;SDS011;36226;53.464;9.852;2022-09-24T15:59:09;23.42;;;17.17;;
50319;SDS011;36226;53.464;9.852;2022-09-24T16:01:37;18.40;;;14.10;;
50319;SDS011;36226;53.464;9.852;2022-09-24T16:04:02;24.13;;;16.55;;
50319;SDS011;36226;53.464;9.852;2022-09-24T16:06:28;23.27;;;16.17;;
50319;SDS011;36226;53.464;9.852;2022-09-24T16:08:53;24.23;;;15.30;;
50319;SDS011;36226;53.464;9.852;2022-09-24T16:11:18;20.50;;;15.50;;
50319;SDS011;36226;53.464;9.852;2022-09-24T16:13:44;23.05;;;16.33;;
50319;SDS011;36226;53.464;9.852;2022-09-24T16:16:09;22.92;;;16.40;;
50319;SDS011;36226;53.464;9.852;2022-09-24T16:18:35;21.63;;;16.33;;
50319;SDS011;36226;53.464;9.852;2022-09-24T16:21:04;22.80;;;16.13;;
50319;SDS011;36226;53.464;9.852;2022-09-24T16:23:30;26.00;;;17.60;;
50319;SDS011;36226;53.464;9.852;2022-09-24T16:25:56;23.92;;;17.50;;
50319;SDS011;36226;53.464;9.852;2022-09-24T16:28:23;25.48;;;18.13;;
50319;SDS011;36226;53.464;9.852;2022-09-24T16:30:49;27.30;;;19.48;;
50319;SDS011;36226;53.464;9.852;2022-09-24T16:33:14;29.95;;;18.65;;
50319;SDS011;36226;53.464;9.852;2022-09-24T16:35:39;25.67;;;18.15;;
50319;SDS011;36226;53.464;9.852;2022-09-24T16:38:05;25.33;;;18.20;;
50319;SDS011;36226;53.464;9.852;2022-09-24T16:40:30;25.23;;;17.50;;
50319;SDS011;36226;53.464;9.852;2022-09-24T16:42:56;25.88;;;17.95;;
50319;SDS011;36226;53.464;9.852;2022-09-24T16:45:22;24.45;;;17.73;;
50319;SDS011;36226;53.464;9.852;2022-09-24T16:47:47;26.55;;;17.70;;
50319;SDS011;36226;53.464;9.852;2022-09-24T16:50:13;25.27;;;17.30;;
50319;SDS011;36226;53.464;9.852;2022-09-24T16:52:39;24.67;;;17.98;;
50319;SDS011;36226;53.464;9.852;2022-09-24T16:57:37;31.27;;;21.75;;
50319;SDS011;36226;53.464;9.852;2022-09-24T17:00:03;30.98;;;21.05;;
50319;SDS011;36226;53.464;9.852;2022-09-24T17:02:31;29.83;;;19.33;;
50319;SDS011;36226;53.464;9.852;2022-09-24T17:04:57;33.25;;;22.15;;
50319;SDS011;36226;53.464;9.852;2022-09-24T17:07:22;30.80;;;22.65;;
50319;SDS011;36226;53.464;9.852;2022-09-24T17:09:47;31.30;;;23.38;;